Blytheville, AR

10:45 PM CDT on July 11, 2014 (GMT -0500)
Millington Municipal (KNQA) Elev 322 ft | 35.36 °N, 89.87 °W | Change Station

Current weather conditions updated 2 hours ago

Mostly Cloudy
Mostly Cloudy
82 °F
Feels Like 88 °F
N
0
Wind Variable Wind from North

Tomorrow is forecast to be Warmer than today.

Today
High -- | Low -- °F
--% Chance of Precip.
Yesterday
High -- | Low -- °F
Precip. -- in
5:52 AM 8:17 PM
Full, 100% visible
Pressure 30.12 in
Visibility 10.0 miles
Clouds Scattered Clouds 12000 ft
Mostly Cloudy 25000 ft
Heat Index 88 °F
Dew Point 73 °F
Humidity 74%
Rainfall 0.00 in
Snow Depth Not available.
UV 0 out of 12
Pollen 3.20 out of 12
Air Quality Not available.
Flu Activity No Activity
METAR KNQA 120055Z 00000KT 10SM SCT120 BKN250 28/23 A3012

More Conditions Fewer Conditions

Pressure 30.12 in
Visibility 10.0 miles
Clouds Scattered Clouds 12000 ft
Mostly Cloudy 25000 ft
Heat Index 88 °F
Dew Point 73 °F
Humidity 74%
Rainfall 0.00 in
Snow Depth Not available.
UV 0 out of 12
Pollen 3.20 out of 12
Air Quality Not available.
Flu Activity No Activity
METAR KNQA 120055Z 00000KT 10SM SCT120 BKN250 28/23 A3012

More Conditions Fewer Conditions

10-Day Weather Forecast

Almanac

Astronomy

Jul. 11, 2014 Rise Set
Actual Time 5:52 AM CDT 8:17 PM CDT
Civil Twilight 5:22 AM CDT 8:47 PM CDT
Nautical Twilight 4:45 AM CDT 9:24 PM CDT
Astronomical Twilight 4:05 AM CDT 10:04 PM CDT
Moon 7:30 PM CDT (7/11) 5:02 AM CDT (7/11)
Length of Visible Light 15h 25m
Length of Day
14h 25m
Tomorrow will be 1m 0s shorter.
Full, 100% of the Moon is Illuminated
Today
Full
Jul 12
Full
Jul 18
Last Quarter
Jul 26
New
Aug 3
First Quarter

Today's Extremes

State Highs State Lows

Community

WunderPhotos

Upload Photos

1,732,682 photos uploaded!

Nearby

Snow Depth

Station Depth Elevation
No new snow has been reported.

Earthquake Activity

City Distance Mag. Time & Date
No recent earthquake activity has been reported nearby.
Minimum magnitude displayed is 2.5.

Coastal Water Temperatures

Place Temperature
No Stations Reporting

Nearby Weather Stations

Station Location Temp. Heat Index Dew Point Humidity Wind Precip. Elev Updated Type
KC0UFP WX, Kennett, MO 77.0 °F 78 °F 73 °F 88% SSW  at  0.0 mph - / hr 262 ft 10:44 PM CDT Normal
Kennett E911, Kennett, MO 81.3 °F 87 °F 74 °F 80% SW  at  2.0 mph 0.00 in / hr 262 ft 10:44 PM CDT Rapid Fire

Show More Stations Show Fewer Stations